03CO weather

Kugel-Strong Airport
Platteville, Colorado, United States

Public forecast

Using degrees Fahrenheit for public forecast. Weather courtesy of forecast.io.

Closest aviation weather report (METAR) to Kugel-Strong Airport

Closest report is Greeley–Weld County Airport, 14.4 nm (26.7 km) NNE. Retrieved 2019/10/23 18:56 UTC (35 minutes ago):

KGXY 231856Z AUTO 31023KT 10SM SCT065 BKN080 09/M06 A3007 RMK AO2 PK WND 31034/1824 SLP194 T00941056

Closest aviation forecast (TAF) to Kugel-Strong Airport

Closest forecast is Denver International Airport, 21.3 nm (39.5 km) S. Retrieved 2019/10/23 18:24 UTC (1 hour ago):

TAF KDEN 231722Z 2318/2424 04010KT P6SM SCT080 SCT220 FM231900 35015G23KT P6SM FEW040 SCT080 SCT120 FM232200 36020G28KT P6SM BKN030 OVC040 TEMPO 2322/2324 -SHRA OVC025 FM240000 03014G20KT 2SM -SHSN BR BKN010 OVC020 TEMPO 2400/2404 3/4SM -SN BR OVC005 FM240400 03012KT 2SM -SN BR SCT005 OVC010 FM240700 04009KT 4SM -SN BR SCT006 OVC012 FM241000 36008KT P6SM BKN015 OVC025 FM241600 02007KT P6SM SCT015 BKN030 FM241900 35007KT P6SM FEW030